createdAt,value
2022-11-14T00:02:15.108Z,95.06
2022-11-14T00:05:24.766Z,95.03
2022-11-14T00:08:23.717Z,95.16
2022-11-14T00:11:12.203Z,94.92
2022-11-14T00:13:59.931Z,94.73
2022-11-14T00:16:46.135Z,94.57
2022-11-14T00:19:34.153Z,94.60
2022-11-14T00:22:19.906Z,94.74
2022-11-14T00:25:13.488Z,94.92
2022-11-14T00:28:01.763Z,94.81
2022-11-14T00:30:49.014Z,94.88
2022-11-14T00:33:42.825Z,94.66
2022-11-14T00:36:27.980Z,94.60
2022-11-14T00:39:14.458Z,94.54
2022-11-14T00:42:01.595Z,94.69
2022-11-14T00:44:48.849Z,94.76
2022-11-14T00:47:40.693Z,94.91
2022-11-14T00:50:41.386Z,94.59
2022-11-14T00:53:27.183Z,94.63
2022-11-14T00:56:28.943Z,94.37
2022-11-14T00:59:28.622Z,94.34
2022-11-14T01:02:13.932Z,94.52
2022-11-14T01:04:59.673Z,94.54
2022-11-14T01:07:45.362Z,94.26
2022-11-14T01:10:48.153Z,94.35
2022-11-14T01:13:40.261Z,94.44
2022-11-14T01:16:38.382Z,94.37
2022-11-14T01:19:23.889Z,94.29
2022-11-14T01:23:03.185Z,94.21
2022-11-14T01:25:47.623Z,94.26
2022-11-14T01:28:32.390Z,94.39
2022-11-14T01:31:23.956Z,94.19
2022-11-14T01:34:30.731Z,94.42
2022-11-14T01:37:17.810Z,94.40
2022-11-14T01:40:20.852Z,94.39
2022-11-14T01:43:17.981Z,94.57
2022-11-14T01:46:14.215Z,94.57
2022-11-14T01:49:06.482Z,94.39
2022-11-14T01:52:01.502Z,94.46
2022-11-14T01:54:50.101Z,94.58
2022-11-14T01:57:43.848Z,94.37
2022-11-14T02:00:29.337Z,94.64
2022-11-14T02:03:16.262Z,94.66
2022-11-14T02:06:05.979Z,94.71
2022-11-14T02:08:54.392Z,94.62
2022-11-14T02:11:48.284Z,94.75
2022-11-14T02:14:37.466Z,94.57
2022-11-14T02:17:31.663Z,94.86
2022-11-14T02:20:35.137Z,94.88
2022-11-14T02:23:35.482Z,94.62
2022-11-14T02:26:22.537Z,94.61
2022-11-14T02:29:24.495Z,94.26
2022-11-14T02:32:13.525Z,94.42
2022-11-14T02:34:59.311Z,94.31
2022-11-14T02:38:19.074Z,94.37
2022-11-14T02:41:10.315Z,94.16
2022-11-14T02:44:05.773Z,94.04
2022-11-14T02:46:51.461Z,93.82
2022-11-14T02:49:49.628Z,93.96
2022-11-14T02:52:48.281Z,93.93
2022-11-14T02:55:34.205Z,93.83
2022-11-14T02:58:29.949Z,93.94
2022-11-14T03:01:21.523Z,93.90
2022-11-14T03:04:24.686Z,93.71
2022-11-14T03:07:14.993Z,93.75
2022-11-14T03:10:10.741Z,93.75
2022-11-14T03:12:57.048Z,93.60
2022-11-14T03:16:14.968Z,93.45
2022-11-14T03:19:05.550Z,93.27
2022-11-14T03:21:55.075Z,93.36
2022-11-14T03:24:42.171Z,93.28
2022-11-14T03:27:48.823Z,93.14
2022-11-14T03:30:40.665Z,93.02
2022-11-14T03:33:51.347Z,92.60
2022-11-14T03:36:41.823Z,92.44
2022-11-14T03:39:46.187Z,92.41
2022-11-14T03:42:46.296Z,92.47
2022-11-14T03:45:58.267Z,92.39
2022-11-14T03:49:02.019Z,92.38
2022-11-14T03:51:58.791Z,91.99
2022-11-14T03:54:55.899Z,92.31
2022-11-14T03:58:33.342Z,92.05
2022-11-14T04:01:28.305Z,91.84
2022-11-14T04:04:58.741Z,92.11
2022-11-14T04:08:21.875Z,92.14
2022-11-14T04:11:40.948Z,92.10
2022-11-14T04:14:29.628Z,91.99
2022-11-14T04:17:30.098Z,91.68
2022-11-14T04:20:16.531Z,91.57
2022-11-14T04:23:01.921Z,91.33
2022-11-14T04:25:50.087Z,91.42
2022-11-14T04:28:45.331Z,91.88
2022-11-14T04:31:56.060Z,92.19
2022-11-14T04:34:41.829Z,92.06
2022-11-14T04:37:44.695Z,92.14
2022-11-14T04:40:55.170Z,92.12
2022-11-14T04:43:53.761Z,92.21
2022-11-14T04:46:39.086Z,92.29
2022-11-14T04:49:57.359Z,92.35
2022-11-14T04:52:45.545Z,92.30
2022-11-14T04:58:38.404Z,92.48
2022-11-14T05:01:48.812Z,92.23
2022-11-14T05:04:37.918Z,92.50
2022-11-14T05:07:36.045Z,92.71
2022-11-14T05:10:32.222Z,92.72
2022-11-14T05:13:21.966Z,92.82
2022-11-14T05:16:33.552Z,93.04
2022-11-14T05:19:29.492Z,93.14
2022-11-14T05:22:24.560Z,93.07
2022-11-14T05:28:35.197Z,92.77
2022-11-14T05:31:22.546Z,92.87
2022-11-14T05:34:16.053Z,92.96
2022-11-14T05:37:37.127Z,93.14
2022-11-14T05:40:43.698Z,93.03
2022-11-14T05:43:29.460Z,92.96
2022-11-14T05:46:16.504Z,93.11
2022-11-14T05:49:28.235Z,92.90
2022-11-14T05:52:44.228Z,93.02
2022-11-14T05:59:04.385Z,92.75
2022-11-14T06:02:21.675Z,92.62
2022-11-14T06:05:17.588Z,92.09
2022-11-14T06:08:40.407Z,91.81
2022-11-14T06:11:28.268Z,91.76
2022-11-14T06:14:26.638Z,91.57
2022-11-14T06:17:18.370Z,91.48
2022-11-14T06:20:47.388Z,91.30
2022-11-14T06:23:47.071Z,91.14
2022-11-14T06:26:35.246Z,91.36
2022-11-14T06:29:20.722Z,91.31
2022-11-14T06:32:06.606Z,91.12
2022-11-14T06:34:51.736Z,91.08
2022-11-14T06:37:36.897Z,90.81
2022-11-14T06:40:22.197Z,90.81
2022-11-14T06:43:10.560Z,90.52
2022-11-14T06:46:00.010Z,90.20
2022-11-14T06:48:49.285Z,90.19
2022-11-14T06:51:57.854Z,89.70
2022-11-14T06:54:43.035Z,89.71
2022-11-14T06:57:28.738Z,89.20
2022-11-14T07:00:14.764Z,88.73
2022-11-14T07:03:00.150Z,88.20
2022-11-14T07:08:49.903Z,87.43
2022-11-14T07:11:39.736Z,87.09
2022-11-14T07:14:32.415Z,86.92
2022-11-14T07:17:31.520Z,86.57
2022-11-14T07:20:43.568Z,86.08
2022-11-14T07:23:32.437Z,85.34
2022-11-14T07:26:32.632Z,85.14
2022-11-14T07:29:18.254Z,84.50
2022-11-14T07:32:14.500Z,84.65
2022-11-14T07:35:02.295Z,84.66
2022-11-14T07:37:48.631Z,84.84
2022-11-14T07:40:33.910Z,84.37
2022-11-14T07:43:19.479Z,83.29
2022-11-14T07:46:07.948Z,83.02
2022-11-14T07:48:53.064Z,82.99
2022-11-14T07:51:38.465Z,83.34
2022-11-14T07:54:24.026Z,82.88
2022-11-14T07:57:09.171Z,82.07
2022-11-14T07:59:59.120Z,80.74
2022-11-14T08:03:03.062Z,80.44
2022-11-14T08:05:59.151Z,79.95
2022-11-14T08:08:44.740Z,80.28
2022-11-14T08:11:48.023Z,79.85
2022-11-14T08:14:34.378Z,80.12
2022-11-14T08:17:23.189Z,80.13
2022-11-14T08:20:09.470Z,79.23
2022-11-14T08:23:02.674Z,78.69
2022-11-14T08:25:47.922Z,79.02
2022-11-14T08:28:33.227Z,78.92
2022-11-14T08:31:18.783Z,78.37
2022-11-14T08:34:03.951Z,78.83
2022-11-14T08:36:49.248Z,78.81
2022-11-14T08:39:37.549Z,78.69
2022-11-14T08:42:22.714Z,77.95
2022-11-14T08:45:08.269Z,78.26
2022-11-14T08:47:53.646Z,77.97
2022-11-14T08:50:39.501Z,77.39
2022-11-14T08:53:24.893Z,77.13
2022-11-14T08:56:11.020Z,76.63
2022-11-14T08:58:56.457Z,76.79
2022-11-14T09:01:44.784Z,76.93
2022-11-14T09:04:32.780Z,76.78
2022-11-14T09:07:18.573Z,76.26
2022-11-14T09:10:05.323Z,74.89
2022-11-14T09:12:58.568Z,75.52
2022-11-14T09:15:44.541Z,75.30
2022-11-14T09:18:36.514Z,74.88
2022-11-14T09:21:22.267Z,74.44
2022-11-14T09:24:08.439Z,74.69
2022-11-14T09:26:57.063Z,74.73
2022-11-14T09:29:45.070Z,74.81
2022-11-14T09:32:30.625Z,72.97
2022-11-14T09:35:18.127Z,73.32
2022-11-14T09:38:09.194Z,73.10
2022-11-14T09:41:08.917Z,72.93
2022-11-14T09:44:20.130Z,72.33
2022-11-14T09:47:14.509Z,69.16
2022-11-14T09:50:13.555Z,69.00
2022-11-14T09:53:05.083Z,69.57
2022-11-14T09:59:38.004Z,69.66
2022-11-14T10:02:23.182Z,68.37
2022-11-14T10:05:23.645Z,67.14
2022-11-14T10:08:49.399Z,67.99
2022-11-14T10:11:54.249Z,68.11
2022-11-14T10:14:53.631Z,67.77
2022-11-14T10:18:19.018Z,68.14
2022-11-14T10:21:10.708Z,68.78
2022-11-14T10:28:17.894Z,69.08
2022-11-14T10:32:11.914Z,69.21
2022-11-14T10:35:56.665Z,69.84
2022-11-14T10:43:33.466Z,70.88
2022-11-14T10:49:00.085Z,70.69
2022-11-14T10:51:15.639Z,71.27
2022-11-14T10:54:10.531Z,71.64
2022-11-14T10:56:56.599Z,71.67
2022-11-14T10:59:45.258Z,71.55
2022-11-14T11:02:50.993Z,70.86
2022-11-14T11:05:52.861Z,70.71
2022-11-14T11:09:03.754Z,70.44
2022-11-14T11:15:21.702Z,70.41
2022-11-14T11:21:54.519Z,70.91
2022-11-14T11:24:45.298Z,70.73
2022-11-14T11:27:30.691Z,70.45
2022-11-14T11:30:23.821Z,70.18
2022-11-14T11:33:19.799Z,69.64
2022-11-14T11:36:14.580Z,69.92
2022-11-14T11:43:23.721Z,69.09
2022-11-14T11:45:50.061Z,68.85
2022-11-14T11:48:42.538Z,68.21
2022-11-14T11:51:39.967Z,68.84
2022-11-14T11:55:33.796Z,67.97
2022-11-14T11:58:25.389Z,68.19
2022-11-14T12:01:12.996Z,67.83
2022-11-14T12:04:03.682Z,67.53
2022-11-14T12:07:51.846Z,66.77
2022-11-14T12:10:47.946Z,66.32
2022-11-14T12:13:54.869Z,66.37
2022-11-14T12:17:07.305Z,66.36
2022-11-14T12:20:00.358Z,65.71
2022-11-14T12:23:10.330Z,65.81
2022-11-14T12:26:01.943Z,66.09
2022-11-14T12:29:27.944Z,66.15
2022-11-14T12:32:21.448Z,65.43
2022-11-14T12:35:14.459Z,65.27
2022-11-14T12:38:06.747Z,64.93
2022-11-14T12:40:57.801Z,65.26
2022-11-14T12:43:43.794Z,64.86
2022-11-14T12:47:12.121Z,64.08
2022-11-14T12:50:00.893Z,64.29
2022-11-14T12:52:48.869Z,64.28
2022-11-14T12:55:43.132Z,63.51
2022-11-14T12:58:50.240Z,63.40
2022-11-14T13:01:35.896Z,63.66
2022-11-14T13:04:27.183Z,62.63
2022-11-14T13:07:47.233Z,61.63
2022-11-14T13:10:40.672Z,61.65
2022-11-14T13:13:44.214Z,61.57
2022-11-14T13:16:50.417Z,62.32
2022-11-14T13:20:04.681Z,62.14
2022-11-14T13:22:50.563Z,61.94
2022-11-14T13:25:36.214Z,61.95
2022-11-14T13:28:36.661Z,62.63
2022-11-14T13:31:34.915Z,62.84
2022-11-14T13:34:42.414Z,63.03
2022-11-14T13:37:38.344Z,62.49
2022-11-14T13:40:43.070Z,62.72
2022-11-14T13:43:41.917Z,62.95
2022-11-14T13:47:00.865Z,63.31
2022-11-14T13:50:07.324Z,63.10
2022-11-14T13:52:53.075Z,63.09
2022-11-14T13:55:53.697Z,63.41
2022-11-14T13:58:50.157Z,63.55
2022-11-14T14:01:37.890Z,63.85
2022-11-14T14:04:55.359Z,63.98
2022-11-14T14:07:52.346Z,63.88
2022-11-14T14:10:49.673Z,63.70
2022-11-14T14:13:55.508Z,63.85
2022-11-14T14:16:46.820Z,64.12
2022-11-14T14:19:37.789Z,64.23
2022-11-14T14:22:30.799Z,64.75
2022-11-14T14:25:42.338Z,65.22
2022-11-14T14:28:55.705Z,65.70
2022-11-14T14:31:42.187Z,66.10
2022-11-14T14:35:28.161Z,66.62
2022-11-14T14:38:25.539Z,67.27
2022-11-14T14:41:13.768Z,68.10
2022-11-14T14:43:59.703Z,68.85
2022-11-14T14:46:45.103Z,69.92
2022-11-14T14:49:36.414Z,70.84
2022-11-14T14:52:38.243Z,71.37
2022-11-14T14:55:34.561Z,72.15
2022-11-14T14:58:23.059Z,72.91
2022-11-14T15:01:15.079Z,73.07
2022-11-14T15:04:04.614Z,73.64
2022-11-14T15:06:50.816Z,73.95
2022-11-14T15:09:36.997Z,74.27
2022-11-14T15:12:28.447Z,74.45
2022-11-14T15:15:16.060Z,74.92
2022-11-14T15:18:06.727Z,75.00
2022-11-14T15:21:07.619Z,75.74
2022-11-14T15:24:11.511Z,76.34
2022-11-14T15:26:57.391Z,77.24
2022-11-14T15:29:47.857Z,77.98
2022-11-14T15:32:33.186Z,78.42
2022-11-14T15:35:20.169Z,78.61
2022-11-14T15:41:22.596Z,78.97
2022-11-14T15:44:28.501Z,79.56
2022-11-14T15:47:36.376Z,80.15
2022-11-14T15:50:28.093Z,79.84
2022-11-14T15:53:19.751Z,80.32
2022-11-14T15:56:05.218Z,80.36
2022-11-14T15:58:51.119Z,80.59
2022-11-14T16:01:38.390Z,80.73
2022-11-14T16:04:30.232Z,81.05
2022-11-14T16:07:16.940Z,81.32
2022-11-14T16:10:06.016Z,81.50
2022-11-14T16:12:52.849Z,81.65
2022-11-14T16:15:38.431Z,81.78
2022-11-14T16:18:23.757Z,81.90
2022-11-14T16:21:17.922Z,81.66
2022-11-14T16:24:03.931Z,81.60
2022-11-14T16:26:49.847Z,81.75
2022-11-14T16:29:35.242Z,82.14
2022-11-14T16:32:20.358Z,82.53
2022-11-14T16:35:19.866Z,82.72
2022-11-14T16:38:05.532Z,82.93
2022-11-14T16:40:50.843Z,83.61
2022-11-14T16:43:35.911Z,84.56
2022-11-14T16:46:21.345Z,84.84
2022-11-14T16:49:06.759Z,84.73
2022-11-14T16:51:52.307Z,84.54
2022-11-14T16:54:37.565Z,84.71
2022-11-14T16:57:23.607Z,85.68
2022-11-14T17:00:12.034Z,86.36
2022-11-14T17:02:57.479Z,85.86
2022-11-14T17:05:48.741Z,85.94
2022-11-14T17:08:34.019Z,86.27
2022-11-14T17:11:19.296Z,86.53
2022-11-14T17:14:04.807Z,86.81
2022-11-14T17:16:51.266Z,87.18
2022-11-14T17:19:38.805Z,87.31
2022-11-14T17:22:24.096Z,87.34
2022-11-14T17:25:09.826Z,87.40
2022-11-14T17:27:58.043Z,88.14
2022-11-14T17:30:43.323Z,88.02
2022-11-14T17:33:28.848Z,87.99
2022-11-14T17:36:14.608Z,88.61
2022-11-14T17:39:00.091Z,88.40
2022-11-14T17:41:45.523Z,88.31
2022-11-14T17:44:30.626Z,88.69
2022-11-14T17:47:19.004Z,89.24
2022-11-14T17:50:04.618Z,90.26
2022-11-14T17:52:49.877Z,90.61
2022-11-14T17:55:35.579Z,90.79
2022-11-14T17:58:20.659Z,91.33
2022-11-14T18:01:14.082Z,91.65
2022-11-14T18:04:04.694Z,92.33
2022-11-14T18:06:52.488Z,92.19
2022-11-14T18:09:41.443Z,91.80
2022-11-14T18:12:27.109Z,91.71
2022-11-14T18:15:27.810Z,92.03
2022-11-14T18:18:13.582Z,92.33
2022-11-14T18:21:05.024Z,92.96
2022-11-14T18:23:52.350Z,92.37
2022-11-14T18:26:37.360Z,92.54
2022-11-14T18:29:22.659Z,92.91
2022-11-14T18:32:08.655Z,93.05
2022-11-14T18:34:53.888Z,93.61
2022-11-14T18:37:38.972Z,93.52
2022-11-14T18:40:24.106Z,93.39
2022-11-14T18:43:09.458Z,93.94
2022-11-14T18:45:54.709Z,94.48
2022-11-14T18:48:42.377Z,94.29
2022-11-14T18:51:32.518Z,94.63
2022-11-14T18:54:18.327Z,94.19
2022-11-14T18:57:03.749Z,93.97
2022-11-14T18:59:52.344Z,94.13
2022-11-14T19:02:37.475Z,93.98
2022-11-14T19:05:22.716Z,94.11
2022-11-14T19:08:07.779Z,94.03
2022-11-14T19:11:03.372Z,94.01
2022-11-14T19:13:48.274Z,94.27
2022-11-14T19:16:35.089Z,94.12
2022-11-14T19:19:20.961Z,94.46
2022-11-14T19:22:06.225Z,94.33
2022-11-14T19:24:51.606Z,94.47
2022-11-14T19:27:36.988Z,94.45
2022-11-14T19:30:24.845Z,94.62
2022-11-14T19:33:10.049Z,94.44
2022-11-14T19:35:55.423Z,94.62
2022-11-14T19:38:40.650Z,94.57
2022-11-14T19:41:28.556Z,94.69
2022-11-14T19:44:13.636Z,94.87
2022-11-14T19:46:59.023Z,94.84
2022-11-14T19:49:44.131Z,95.04
2022-11-14T19:52:29.454Z,95.06
2022-11-14T19:55:14.765Z,94.66
2022-11-14T19:58:00.403Z,94.67
2022-11-14T20:00:48.465Z,94.71
2022-11-14T20:03:34.598Z,94.99
2022-11-14T20:06:26.379Z,95.24
2022-11-14T20:09:16.201Z,95.46
2022-11-14T20:12:08.971Z,95.56
2022-11-14T20:14:54.849Z,95.36
2022-11-14T20:18:09.135Z,95.28
2022-11-14T20:21:02.850Z,95.07
2022-11-14T20:23:48.917Z,94.77
2022-11-14T20:26:36.192Z,94.66
2022-11-14T20:29:33.882Z,94.36
2022-11-14T20:32:25.084Z,93.95
2022-11-14T20:35:15.215Z,93.76
2022-11-14T20:38:04.481Z,93.53
2022-11-14T20:41:00.508Z,93.50
2022-11-14T20:43:46.889Z,93.34
2022-11-14T20:46:33.891Z,93.16
2022-11-14T20:49:19.613Z,93.19
2022-11-14T20:52:05.885Z,93.17
2022-11-14T20:54:51.623Z,93.22
2022-11-14T20:57:39.659Z,93.06
2022-11-14T21:00:25.295Z,93.04
2022-11-14T21:03:11.074Z,92.96
2022-11-14T21:05:57.177Z,93.13
2022-11-14T21:08:44.372Z,93.31
2022-11-14T21:11:29.927Z,93.38
2022-11-14T21:14:18.462Z,93.32
2022-11-14T21:17:04.262Z,93.40
2022-11-14T21:19:52.859Z,93.20
2022-11-14T21:22:38.457Z,93.31
2022-11-14T21:25:24.717Z,93.32
2022-11-14T21:28:10.000Z,93.33
2022-11-14T21:31:15.974Z,93.16
2022-11-14T21:34:04.481Z,93.30
2022-11-14T21:36:51.282Z,93.19
2022-11-14T21:39:45.746Z,93.23
2022-11-14T21:42:39.176Z,93.44
2022-11-14T21:45:24.643Z,93.32
2022-11-14T21:48:10.471Z,93.47
2022-11-14T21:51:15.450Z,93.36
2022-11-14T21:54:05.772Z,93.22
2022-11-14T21:56:51.259Z,93.30
2022-11-14T21:59:36.980Z,93.07
2022-11-14T22:02:40.690Z,93.11
2022-11-14T22:05:26.226Z,93.31
2022-11-14T22:08:15.883Z,93.18
2022-11-14T22:11:04.423Z,93.31
2022-11-14T22:13:50.144Z,93.11
2022-11-14T22:16:54.465Z,93.00
2022-11-14T22:19:46.594Z,92.85
2022-11-14T22:22:33.539Z,93.02
2022-11-14T22:25:36.869Z,92.62
2022-11-14T22:28:26.210Z,92.51
2022-11-14T22:31:32.023Z,92.62
2022-11-14T22:34:39.369Z,92.69
2022-11-14T22:37:26.694Z,92.84
2022-11-14T22:40:12.855Z,92.79
2022-11-14T22:43:00.331Z,92.60
2022-11-14T22:45:54.600Z,92.69
2022-11-14T22:48:40.932Z,92.65
2022-11-14T22:51:27.537Z,92.32
2022-11-14T22:54:13.608Z,92.26
2022-11-14T22:56:59.229Z,91.94
2022-11-14T22:59:44.581Z,91.97
2022-11-14T23:02:29.931Z,92.02
2022-11-14T23:05:17.547Z,92.01
2022-11-14T23:08:04.940Z,92.01
2022-11-14T23:10:50.880Z,92.05
2022-11-14T23:13:42.492Z,92.18
2022-11-14T23:16:30.811Z,92.22
2022-11-14T23:19:18.793Z,92.17
2022-11-14T23:22:04.681Z,92.16
2022-11-14T23:24:50.383Z,92.27
2022-11-14T23:27:36.112Z,92.39
2022-11-14T23:30:21.972Z,92.41
2022-11-14T23:33:07.323Z,92.25
2022-11-14T23:35:53.565Z,92.54
2022-11-14T23:38:39.169Z,92.46
2022-11-14T23:41:25.505Z,92.42
2022-11-14T23:44:10.901Z,92.29
2022-11-14T23:46:57.283Z,92.41
2022-11-14T23:49:42.773Z,92.57
2022-11-14T23:52:30.295Z,92.49
2022-11-14T23:55:17.359Z,92.40
2022-11-14T23:58:02.576Z,92.41
